TimeEST,TemperatureF,Dew PointF,Humidity,Sea Level PressureIn,VisibilityMPH,Wind Direction,Wind SpeedMPH,Gust SpeedMPH,PrecipitationIn,Events,Conditions,WindDirDegrees,DateUTC
12:53 AM,30.0,23.0,75,30.14,10.0,SSW,13.8,-,N/A,,Overcast,210,2013-11-26 05:53:00
1:53 AM,30.0,23.0,75,30.13,10.0,SSW,13.8,-,N/A,,Overcast,210,2013-11-26 06:53:00
2:53 AM,30.0,24.1,79,30.14,10.0,SSW,15.0,-,N/A,,Overcast,210,2013-11-26 07:53:00
3:53 AM,30.0,24.1,79,30.13,9.0,SSW,12.7,-,N/A,,Overcast,200,2013-11-26 08:53:00
4:53 AM,30.0,24.1,79,30.13,10.0,SSW,13.8,-,N/A,,Overcast,200,2013-11-26 09:53:00
5:30 AM,30.2,24.8,80,30.10,10.0,SSW,12.7,-,N/A,,Overcast,200,2013-11-26 10:30:00
5:53 AM,30.0,24.1,79,30.12,10.0,SSW,11.5,-,N/A,,Overcast,200,2013-11-26 10:53:00
6:53 AM,30.0,24.1,79,30.11,10.0,SSW,9.2,-,N/A,,Overcast,200,2013-11-26 11:53:00
7:53 AM,30.0,24.1,79,30.11,9.0,South,10.4,-,N/A,,Overcast,180,2013-11-26 12:53:00
8:53 AM,30.0,25.0,82,30.10,7.0,South,8.1,-,N/A,,Overcast,190,2013-11-26 13:53:00
9:53 AM,30.0,25.0,82,30.10,7.0,SSW,10.4,-,N/A,,Overcast,210,2013-11-26 14:53:00
10:53 AM,32.0,25.0,75,30.09,8.0,South,10.4,-,N/A,,Mostly Cloudy,170,2013-11-26 15:53:00
11:53 AM,34.0,25.0,70,30.06,9.0,South,10.4,-,N/A,,Overcast,190,2013-11-26 16:53:00
12:53 PM,34.0,25.0,70,30.05,9.0,South,6.9,-,N/A,,Overcast,190,2013-11-26 17:53:00
1:53 PM,35.1,25.0,67,30.02,9.0,Variable,6.9,34.5,N/A,,Squalls,0,2013-11-26 18:53:00
2:53 PM,36.0,26.1,67,29.99,9.0,SW,6.9,-,N/A,,Overcast,230,2013-11-26 19:53:00
3:53 PM,35.1,25.0,67,29.98,9.0,South,8.1,-,N/A,,Overcast,170,2013-11-26 20:53:00
4:53 PM,34.0,25.0,70,29.97,9.0,SSW,4.6,-,N/A,,Overcast,200,2013-11-26 21:53:00
5:53 PM,34.0,26.1,73,29.97,9.0,SSW,6.9,-,N/A,,Overcast,200,2013-11-26 22:53:00
6:53 PM,34.0,26.1,73,29.96,9.0,SW,5.8,-,N/A,,Overcast,230,2013-11-26 23:53:00
7:53 PM,33.1,26.1,75,29.96,9.0,West,5.8,-,N/A,,Overcast,260,2013-11-27 00:53:00
8:17 PM,33.8,26.6,75,29.93,9.0,West,6.9,-,0.00,Snow,Light Snow,270,2013-11-27 01:17:00
8:53 PM,33.1,26.1,75,29.95,7.0,WNW,6.9,-,0.00,Snow,Light Snow,290,2013-11-27 01:53:00
9:53 PM,33.1,27.0,78,29.95,7.0,WNW,10.4,-,0.00,,Overcast,290,2013-11-27 02:53:00
10:53 PM,32.0,26.1,79,29.94,8.0,WNW,12.7,-,0.00,Snow,Light Snow,290,2013-11-27 03:53:00
11:53 PM,30.0,24.1,79,29.94,9.0,WNW,13.8,-,0.00,Snow,Light Snow,290,2013-11-27 04:53:00